Time;durP1;ratioP1;P1;durP2;ratioP2;P2;SDS_P1;SDS_P2;PMS_P1;PMS_P2;Temp;Humidity;BMP_temperature;BMP_pressure;BME280_temperature;BME280_humidity;BME280_pressure;Samples;Min_cycle;Max_cycle;Signal;HPM_P1;HPM_P2
2023/01/07 00:02:23;;;;;;;17.17;9.90;;;;;;;5.78;100.00;100988.01;5060175;56;1179277;-71
2023/01/07 00:07:29;;;;;;;9.23;7.03;;;;;;;5.76;100.00;100988.55;5115718;56;1238538;-68
2023/01/07 00:12:34;;;;;;;16.73;9.97;;;;;;;5.73;100.00;100985.61;5130852;56;1138729;-69
2023/01/07 00:17:40;;;;;;;18.20;10.77;;;;;;;5.70;100.00;100984.90;4963560;57;1140670;-72
2023/01/07 00:22:46;;;;;;;18.80;11.90;;;;;;;5.72;100.00;100977.80;4963340;57;1143081;-67
2023/01/07 00:27:51;;;;;;;18.13;11.63;;;;;;;5.73;100.00;100975.11;4983039;57;1142999;-68
2023/01/07 00:33:09;;;;;;;20.30;12.87;;;;;;;5.75;100.00;100974.57;4990330;56;1143150;-71
2023/01/07 00:38:06;;;;;;;19.90;12.93;;;;;;;5.79;100.00;100967.40;4973518;56;1143229;-68
2023/01/07 00:43:11;;;;;;;16.75;10.82;;;;;;;5.81;100.00;100976.87;4963471;57;1143419;-70
2023/01/07 00:48:17;;;;;;;19.03;11.50;;;;;;;5.83;100.00;100979.42;5032548;56;1144872;-68
2023/01/07 00:53:24;;;;;;;21.47;11.43;;;;;;;5.85;100.00;100973.17;4993482;56;1142839;-72
2023/01/07 00:58:30;;;;;;;18.20;10.53;;;;;;;5.86;100.00;100969.63;4963597;56;1142841;-70
2023/01/07 01:03:36;;;;;;;15.47;10.80;;;;;;;5.84;100.00;100981.97;4982743;57;1143125;-69
2023/01/07 01:08:44;;;;;;;16.53;10.17;;;;;;;5.81;100.00;100990.45;4977774;57;1140912;-71
2023/01/07 01:13:50;;;;;;;15.32;10.45;;;;;;;5.78;100.00;100991.48;5036583;57;1142959;-71
2023/01/07 01:18:56;;;;;;;12.10;8.80;;;;;;;5.80;100.00;100991.41;5056804;57;1143001;-73
2023/01/07 01:24:02;;;;;;;18.67;10.83;;;;;;;5.80;100.00;101002.76;5037080;57;1140695;-68
2023/01/07 01:29:08;;;;;;;19.10;11.20;;;;;;;5.81;100.00;101000.95;5037242;57;1143274;-71
2023/01/07 01:34:14;;;;;;;16.43;11.47;;;;;;;5.82;100.00;100991.69;5036730;57;1143182;-68
2023/01/07 01:39:20;;;;;;;17.62;11.98;;;;;;;5.84;100.00;100983.28;5056362;57;1143154;-74
2023/01/07 01:44:43;;;;;;;21.70;11.60;;;;;;;5.83;100.00;100988.14;5039775;57;1142975;-68
2023/01/07 01:49:57;;;;;;;26.43;12.00;;;;;;;5.81;100.00;100989.14;5044931;57;1143093;-72
2023/01/07 01:55:08;;;;;;;13.60;8.63;;;;;;;5.78;100.00;100982.76;5061142;57;1142906;-69
2023/01/07 02:00:15;;;;;;;12.07;9.20;;;;;;;5.78;100.00;100985.38;5045505;57;1140958;-68
2023/01/07 02:05:28;;;;;;;27.40;12.93;;;;;;;5.78;100.00;100988.86;5045578;57;1141011;-72
2023/01/07 02:10:34;;;;;;;18.17;11.70;;;;;;;5.78;100.00;101005.92;5064738;57;1143005;-72
2023/01/07 02:16:05;;;;;;;22.50;12.97;;;;;;;5.77;100.00;101006.84;5044892;57;1143008;-70
2023/01/07 02:21:56;;;;;;;25.03;13.97;;;;;;;5.79;100.00;101010.24;5040578;57;1143065;-70
2023/01/07 02:27:30;;;;;;;21.93;14.20;;;;;;;5.78;100.00;101010.31;5110493;56;1143049;-68
2023/01/07 02:33:24;;;;;;;10.43;7.27;;;;;;;5.77;100.00;100993.72;5102144;56;1142918;-73
2023/01/07 02:39:10;;;;;;;15.00;9.47;;;;;;;5.77;100.00;100993.72;5037645;57;1140848;-67
2023/01/07 02:44:30;;;;;;;21.07;12.77;;;;;;;5.75;100.00;100991.62;4963577;57;1140883;-72
2023/01/07 02:49:36;;;;;;;16.40;11.90;;;;;;;5.74;100.00;100991.70;5035635;57;1142935;-72
2023/01/07 02:54:44;;;;;;;17.23;12.50;;;;;;;5.78;100.00;100997.20;5044775;57;1143084;-75
2023/01/07 03:00:18;;;;;;;16.87;10.57;;;;;;;5.79;100.00;100996.27;5045141;56;1142897;-71
2023/01/07 03:05:29;;;;;;;;;;;;;;;5.78;100.00;101006.37;5048749;57;1143083;-70
2023/01/07 03:11:06;;;;;;;22.17;12.83;;;;;;;5.72;100.00;101003.59;5079914;57;976153;-73
2023/01/07 03:16:28;;;;;;;14.73;9.93;;;;;;;5.64;100.00;101012.31;5116680;56;1138874;-68
2023/01/07 03:21:35;;;;;;;16.47;11.63;;;;;;;5.60;100.00;101003.73;5114646;56;1140910;-69
2023/01/07 03:26:47;;;;;;;13.07;10.03;;;;;;;5.55;100.00;101008.81;5140104;56;1251321;-67
2023/01/07 03:32:15;;;;;;;17.90;10.90;;;;;;;5.52;100.00;101021.61;5112234;56;1249355;-69
2023/01/07 03:37:25;;;;;;;17.07;9.88;;;;;;;5.44;100.00;101012.43;5042065;57;1262291;-67
2023/01/07 03:42:41;;;;;;;20.30;9.90;;;;;;;5.38;100.00;101003.07;5044531;57;1141075;-70
2023/01/07 03:47:54;;;;;;;18.93;12.30;;;;;;;5.38;100.00;101003.53;5087035;56;1141090;-70
2023/01/07 03:53:01;;;;;;;19.50;11.63;;;;;;;5.37;100.00;101002.69;5119800;56;1259961;-71
2023/01/07 03:58:08;;;;;;;31.97;12.33;;;;;;;5.38;100.00;100999.14;5119681;56;1259866;-69
2023/01/07 04:03:14;;;;;;;22.15;12.73;;;;;;;5.36;100.00;100989.64;5119829;56;1260728;-69
2023/01/07 04:08:22;;;;;;;20.68;11.20;;;;;;;5.35;100.00;100989.28;5141771;56;1142941;-71
2023/01/07 04:13:28;;;;;;;16.37;9.10;;;;;;;5.30;100.00;100985.56;5121326;56;1142897;-71
2023/01/07 04:18:34;;;;;;;25.10;8.53;;;;;;;5.24;100.00;100986.70;5045112;56;1141097;-69
2023/01/07 04:23:41;;;;;;;23.07;8.67;;;;;;;5.18;100.00;100984.84;5064139;57;1178628;-74
2023/01/07 04:28:48;;;;;;;10.03;7.43;;;;;;;5.13;100.00;101001.25;5045173;56;1141044;-68
2023/01/07 04:33:54;;;;;;;10.23;8.00;;;;;;;5.03;100.00;100997.38;5003811;57;1141048;-71
2023/01/07 04:39:01;;;;;;;8.80;6.73;;;;;;;4.95;100.00;100999.87;4982184;57;1140690;-72
2023/01/07 04:44:07;;;;;;;35.60;7.83;;;;;;;4.91;100.00;100993.06;4961515;57;1222830;-72
2023/01/07 04:49:13;;;;;;;27.70;7.60;;;;;;;4.88;100.00;101003.72;5009697;57;1140692;-74
2023/01/07 04:54:19;;;;;;;17.60;8.13;;;;;;;4.85;100.00;100998.61;5045243;57;1141907;-71
2023/01/07 04:59:26;;;;;;;15.95;7.15;;;;;;;4.81;100.00;101003.59;5064904;56;1141024;-71
2023/01/07 05:04:32;;;;;;;15.90;7.17;;;;;;;4.82;100.00;101001.37;5044907;56;1140982;-70
2023/01/07 05:09:38;;;;;;;52.33;8.50;;;;;;;4.83;100.00;101000.91;5044800;56;1141033;-70
2023/01/07 05:14:45;;;;;;;118.33;11.18;;;;;;;4.83;100.00;100999.14;5063835;57;1190432;-69
2023/01/07 05:19:51;;;;;;;42.07;9.83;;;;;;;4.85;100.00;100998.61;5115787;56;1142909;-71
2023/01/07 05:24:57;;;;;;;45.50;9.17;;;;;;;4.89;100.00;100997.53;5127711;55;1140863;-69
2023/01/07 05:30:05;;;;;;;25.40;9.27;;;;;;;4.92;100.00;101003.94;5148221;56;1141075;-69
2023/01/07 05:35:11;;;;;;;56.27;10.50;;;;;;;5.01;100.00;101002.68;5063691;56;1182665;-69
2023/01/07 05:40:17;;;;;;;72.15;11.12;;;;;;;5.18;100.00;101003.20;5065625;56;1143121;-67
2023/01/07 05:45:23;;;;;;;116.12;11.28;;;;;;;5.22;100.00;101007.35;5081511;56;1143128;-68
2023/01/07 05:50:28;;;;;;;41.97;11.67;;;;;;;5.17;100.00;101006.28;5112954;56;1143025;-71
2023/01/07 05:55:42;;;;;;;17.27;9.70;;;;;;;5.17;100.00;101012.84;5127464;56;1142843;-66
2023/01/07 06:00:44;;;;;;;31.67;9.87;;;;;;;5.17;100.00;101018.54;5146590;56;1141050;-70
2023/01/07 06:05:50;;;;;;;44.97;11.67;;;;;;;5.20;100.00;101012.66;5127431;56;1141053;-69
2023/01/07 06:10:56;;;;;;;85.00;11.50;;;;;;;5.27;100.00;101022.42;5126832;56;1143387;-67
2023/01/07 06:16:04;;;;;;;87.33;11.67;;;;;;;5.31;100.00;101020.05;5147725;56;1142930;-72
2023/01/07 06:21:11;;;;;;;89.45;36.50;;;;;;;5.30;100.00;101020.97;5130565;56;1141059;-69
2023/01/07 06:26:17;;;;;;;29.02;12.78;;;;;;;5.31;100.00;101017.42;5069469;56;1143070;-68
2023/01/07 06:31:22;;;;;;;31.20;12.40;;;;;;;5.35;100.00;101020.75;5108298;56;1143078;-71
2023/01/07 06:36:29;;;;;;;29.82;10.38;;;;;;;5.37;100.00;101032.84;5063456;56;1143100;-72
2023/01/07 06:41:34;;;;;;;43.77;11.50;;;;;;;5.38;100.00;101041.10;5081847;56;1142974;-73
2023/01/07 06:46:40;;;;;;;35.97;13.67;;;;;;;5.34;100.00;101042.20;5090647;56;1143079;-70
2023/01/07 06:51:46;;;;;;;43.70;15.93;;;;;;;5.29;100.00;101048.11;5046352;56;1140882;-68
2023/01/07 06:56:52;;;;;;;29.17;13.67;;;;;;;5.28;100.00;101047.72;5042055;57;1140906;-73
2023/01/07 07:01:58;;;;;;;23.57;11.20;;;;;;;5.26;100.00;101038.61;5095386;56;1142939;-68
2023/01/07 07:07:03;;;;;;;20.43;9.53;;;;;;;5.28;100.00;101042.02;5077962;56;1143078;-70
2023/01/07 07:12:09;;;;;;;53.83;17.97;;;;;;;5.30;100.00;101045.88;5126716;56;1140917;-72
2023/01/07 07:17:15;;;;;;;49.53;18.30;;;;;;;5.32;100.00;101033.55;5083793;56;1143134;-68
2023/01/07 07:22:22;;;;;;;64.13;22.30;;;;;;;5.40;100.00;101039.27;5061864;56;1142963;-71
2023/01/07 07:27:27;;;;;;;49.73;23.10;;;;;;;5.42;100.00;101046.60;5041904;57;1143168;-69
2023/01/07 07:32:34;;;;;;;25.23;15.93;;;;;;;5.43;100.00;101050.92;5060775;56;1142936;-71
2023/01/07 07:37:40;;;;;;;38.07;13.57;;;;;;;5.48;100.00;101047.63;5146795;56;1143062;-71
2023/01/07 07:42:47;;;;;;;19.50;11.73;;;;;;;5.47;100.00;101048.55;5125792;56;1142997;-69
2023/01/07 07:47:52;;;;;;;20.03;10.50;;;;;;;5.36;100.00;101042.09;5126415;56;1143203;-73
2023/01/07 07:52:58;;;;;;;35.03;12.43;;;;;;;5.34;100.00;101026.46;5146965;56;1143025;-67
2023/01/07 07:58:04;;;;;;;16.97;9.93;;;;;;;5.39;100.00;101036.70;5124095;56;1142892;-72
2023/01/07 08:03:10;;;;;;;31.10;12.57;;;;;;;5.42;100.00;101044.44;5042188;55;1140850;-70
2023/01/07 08:08:17;;;;;;;60.30;13.84;;;;;;;5.38;100.00;101040.25;5042906;56;1152340;-71
2023/01/07 08:13:24;;;;;;;40.92;14.00;;;;;;;5.34;100.00;101033.48;5062452;56;1142988;-66
2023/01/07 08:18:30;;;;;;;20.50;11.68;;;;;;;5.30;100.00;101032.30;5078989;56;1143083;-73
2023/01/07 08:23:36;;;;;;;24.07;13.10;;;;;;;5.29;100.00;101036.31;5059341;56;1143136;-69
2023/01/07 08:28:43;;;;;;;22.13;11.07;;;;;;;5.29;100.00;101026.67;5060613;57;1142836;-67
2023/01/07 08:33:49;;;;;;;39.17;13.10;;;;;;;5.23;100.00;101024.79;5081415;56;1142970;-66
2023/01/07 08:38:55;;;;;;;26.93;12.90;;;;;;;5.27;100.00;101028.97;5071597;56;1143043;-69
2023/01/07 08:44:01;;;;;;;26.37;13.93;;;;;;;5.27;100.00;101032.45;5086827;56;1143239;-72
2023/01/07 08:49:08;;;;;;;31.47;14.67;;;;;;;5.28;100.00;101033.30;5088258;56;1142982;-67
2023/01/07 08:54:14;;;;;;;27.23;13.23;;;;;;;5.37;100.00;101021.05;5106383;56;1143196;-74
2023/01/07 08:59:20;;;;;;;26.85;13.78;;;;;;;5.45;100.00;101021.54;5097085;56;1142942;-72
2023/01/07 09:04:27;;;;;;;35.15;12.90;;;;;;;5.42;100.00;101009.87;5042007;57;1142950;-75
2023/01/07 09:09:33;;;;;;;20.70;12.10;;;;;;;5.50;100.00;101022.64;5041630;57;1143073;-70
2023/01/07 09:14:39;;;;;;;24.80;12.97;;;;;;;5.53;100.00;101029.02;5061722;56;1143043;-73
2023/01/07 09:19:45;;;;;;;30.80;13.77;;;;;;;5.57;100.00;101023.56;5041892;56;1143209;-72
2023/01/07 09:24:50;;;;;;;24.03;15.13;;;;;;;5.59;100.00;101023.03;5042038;56;1143064;-69
2023/01/07 09:29:57;;;;;;;24.20;13.00;;;;;;;5.61;100.00;101018.56;5061849;56;1140888;-69
2023/01/07 09:35:03;;;;;;;26.20;11.63;;;;;;;5.64;100.00;101026.75;5042004;56;1142992;-72
2023/01/07 09:40:25;;;;;;;24.67;14.67;;;;;;;5.72;100.00;101018.48;5042245;56;1142941;-70
2023/01/07 09:45:35;;;;;;;221.62;47.48;;;;;;;5.80;100.00;101020.28;5042083;56;1142945;-72
2023/01/07 09:50:48;;;;;;;33.33;21.80;;;;;;;5.93;100.00;101017.45;5133868;56;1145396;-72
2023/01/07 09:55:56;;;;;;;35.47;13.13;;;;;;;5.97;100.00;101015.04;5085230;56;1143009;-71
2023/01/07 10:01:36;;;;;;;110.87;56.97;;;;;;;5.91;100.00;101007.49;5063206;55;1143163;-66
2023/01/07 10:07:23;;;;;;;26.60;16.12;;;;;;;5.95;100.00;101005.95;5041909;56;1145233;-73
2023/01/07 10:12:54;;;;;;;44.48;29.67;;;;;;;6.03;100.00;101000.30;5035206;56;1142903;-70
2023/01/07 10:18:32;;;;;;;24.63;13.23;;;;;;;6.05;100.00;100989.26;5056672;57;1142835;-68
2023/01/07 10:23:42;;;;;;;38.13;21.57;;;;;;;6.09;100.00;100991.27;5042447;57;1143019;-72
2023/01/07 10:29:16;;;;;;;40.00;18.17;;;;;;;6.14;100.00;100987.46;5060742;56;1143040;-75
2023/01/07 10:34:26;;;;;;;31.37;15.28;;;;;;;6.14;100.00;100976.95;5088419;56;1143116;-69
2023/01/07 10:39:56;;;;;;;37.60;14.83;;;;;;;6.10;100.00;100982.47;5096154;56;1143465;-72
2023/01/07 10:45:32;;;;;;;26.03;14.73;;;;;;;6.05;100.00;100975.28;5119026;56;1143014;-73
2023/01/07 10:51:03;;;;;;;32.33;13.47;;;;;;;6.00;100.00;100988.17;5121167;56;1143077;-72
2023/01/07 10:56:21;;;;;;;33.27;13.40;;;;;;;5.99;100.00;100973.80;5083157;56;1143020;-72
2023/01/07 11:01:37;;;;;;;20.97;11.83;;;;;;;6.03;100.00;100978.45;5052070;56;1142928;-74
2023/01/07 11:07:08;;;;;;;51.63;23.77;;;;;;;6.05;100.00;100970.03;5110452;56;1143000;-72
2023/01/07 11:12:33;;;;;;;20.70;10.97;;;;;;;6.12;100.00;100960.89;5044394;56;1143004;-73
2023/01/07 11:18:03;;;;;;;22.67;11.20;;;;;;;6.03;100.00;100955.66;5119857;56;1143006;-76
2023/01/07 11:23:33;;;;;;;38.50;17.17;;;;;;;5.97;100.00;100958.59;5127732;56;1142987;-70
2023/01/07 11:28:58;;;;;;;28.53;14.13;;;;;;;5.92;100.00;100948.35;5113022;56;1143134;-74
2023/01/07 11:34:04;;;;;;;25.27;15.70;;;;;;;6.00;100.00;100954.50;5066371;56;1142951;-72
2023/01/07 11:39:23;;;;;;;42.37;17.87;;;;;;;6.08;100.00;100944.93;5035675;56;1143176;-74
2023/01/07 11:44:28;;;;;;;47.47;22.93;;;;;;;6.17;100.00;100940.50;5072445;56;1143185;-75
2023/01/07 11:49:38;;;;;;;39.70;18.90;;;;;;;6.22;100.00;100937.17;5096685;56;1142902;-70
2023/01/07 11:54:50;;;;;;;159.57;64.30;;;;;;;6.20;100.00;100927.21;5100085;56;1142919;-73
2023/01/07 12:00:21;;;;;;;50.50;25.00;;;;;;;6.26;100.00;100913.27;5115938;56;1145106;-72
2023/01/07 12:05:29;;;;;;;86.65;38.05;;;;;;;6.29;100.00;100902.61;5064348;56;1148848;-72
2023/01/07 12:10:39;;;;;;;25.30;15.60;;;;;;;6.30;100.00;100910.87;5056125;57;1143006;-67
2023/01/07 12:16:03;;;;;;;40.77;22.23;;;;;;;6.32;100.00;100898.50;5036716;57;1143015;-70
2023/01/07 12:21:55;;;;;;;209.20;67.50;;;;;;;6.38;100.00;100889.92;5036458;57;1143073;-73
2023/01/07 12:27:29;;;;;;;196.60;96.87;;;;;;;6.43;100.00;100884.78;5005388;57;1145534;-75
2023/01/07 12:33:04;;;;;;;54.55;24.67;;;;;;;6.45;100.00;100875.50;5059528;55;1145065;-72
2023/01/07 12:38:29;;;;;;;34.97;19.03;;;;;;;6.55;100.00;100867.52;5016189;56;1143086;-73
2023/01/07 12:43:51;;;;;;;39.85;19.35;;;;;;;6.61;100.00;100850.08;4998486;57;1143102;-73
2023/01/07 12:49:07;;;;;;;28.10;17.17;;;;;;;6.64;100.00;100842.88;4968682;58;1142866;-70
2023/01/07 12:54:24;;;;;;;34.87;18.13;;;;;;;6.72;100.00;100845.55;4943871;58;1142901;-74
2023/01/07 12:59:42;;;;;;;73.12;31.10;;;;;;;6.73;100.00;100845.91;4918794;58;1143006;-72
2023/01/07 13:05:08;;;;;;;89.93;43.67;;;;;;;6.69;100.00;100861.02;4963388;58;1143165;-73
2023/01/07 13:10:42;;;;;;;32.23;19.50;;;;;;;6.73;100.00;100861.67;4941829;58;1142883;-73
2023/01/07 13:15:49;;;;;;;66.47;31.70;;;;;;;6.69;100.00;100857.93;4931247;58;1142976;-72
2023/01/07 13:21:11;;;;;;;32.20;19.37;;;;;;;6.68;100.00;100861.95;5038349;57;1142874;-67
2023/01/07 13:26:57;;;;;;;27.93;17.77;;;;;;;6.67;100.00;100856.31;5037868;57;1142970;-72
2023/01/07 13:32:19;;;;;;;83.87;55.67;;;;;;;6.66;100.00;100847.58;5040618;57;1143139;-72
2023/01/07 13:37:55;;;;;;;32.35;20.08;;;;;;;6.63;100.00;100848.22;5042323;57;1142914;-72
2023/01/07 13:43:10;;;;;;;44.87;30.20;;;;;;;6.63;100.00;100854.32;5041193;56;1143348;-68
2023/01/07 13:48:23;;;;;;;39.83;25.37;;;;;;;6.65;100.00;100849.83;5049791;56;1143048;-68
2023/01/07 13:53:33;;;;;;;32.37;20.90;;;;;;;6.69;100.00;100853.98;5112489;56;1143411;-68
2023/01/07 13:58:52;;;;;;;38.80;24.00;;;;;;;6.75;100.00;100863.76;4986441;57;1142968;-69
2023/01/07 14:04:06;;;;;;;54.73;31.77;;;;;;;6.70;100.00;100860.94;4964473;56;1142780;-70
2023/01/07 14:09:17;;;;;;;45.90;27.10;;;;;;;6.70;100.00;100861.41;4963735;57;1142976;-70
2023/01/07 14:14:47;;;;;;;36.68;21.97;;;;;;;6.74;100.00;100860.28;5001243;56;1143086;-71
2023/01/07 14:20:36;;;;;;;66.10;39.50;;;;;;;6.79;100.00;100859.56;4982809;57;1143081;-69
2023/01/07 14:25:54;;;;;;;79.37;35.03;;;;;;;6.79;100.00;100857.40;4994164;56;1142835;-69
2023/01/07 14:31:00;;;;;;;64.43;32.17;;;;;;;6.77;100.00;100854.86;4963604;57;1142925;-67
2023/01/07 14:36:09;;;;;;;66.37;37.00;;;;;;;6.79;100.00;100847.73;5114557;56;1142879;-69
2023/01/07 14:41:19;;;;;;;123.20;62.33;;;;;;;6.77;100.00;100847.44;5110747;56;1143049;-70
2023/01/07 14:46:41;;;;;;;52.40;29.85;;;;;;;6.80;100.00;100849.89;5101275;56;1145044;-67
2023/01/07 14:52:06;;;;;;;61.90;33.37;;;;;;;6.81;100.00;100834.04;5079078;56;1142919;-69
2023/01/07 14:57:38;;;;;;;52.75;31.30;;;;;;;6.80;100.00;100824.45;5042705;57;1143119;-71
2023/01/07 15:03:03;;;;;;;44.58;26.25;;;;;;;6.80;100.00;100818.34;5046828;56;1142960;-71
2023/01/07 15:19:04;;;;;;;292.43;126.87;;;;;;;6.85;100.00;100807.97;5042819;56;1142823;-73
2023/01/07 15:24:32;;;;;;;85.80;51.23;;;;;;;6.85;100.00;100807.97;5055297;56;1147116;-71
2023/01/07 15:30:18;;;;;;;73.37;42.97;;;;;;;6.84;100.00;100814.16;5042695;56;1142938;-73
2023/01/07 15:35:42;;;;;;;76.75;38.08;;;;;;;6.86;100.00;100816.23;5043074;57;1143149;-74
2023/01/07 15:40:47;;;;;;;;;;;;;;;6.89;100.00;100805.52;5078777;56;1143036;-72
2023/01/07 15:46:07;;;;;;;66.70;36.23;;;;;;;6.91;100.00;100804.11;5061345;56;976354;-69
2023/01/07 15:51:18;;;;;;;70.83;42.85;;;;;;;6.95;100.00;100808.27;5073150;56;1140948;-67
2023/01/07 15:56:24;;;;;;;94.67;46.53;;;;;;;7.00;100.00;100808.86;5071313;56;1153391;-71
2023/01/07 16:01:30;;;;;;;119.65;52.33;;;;;;;7.06;100.00;100808.02;5147384;56;1142929;-72
2023/01/07 16:06:44;;;;;;;66.17;38.00;;;;;;;7.11;100.00;100812.17;5126783;56;1145258;-68
2023/01/07 16:11:47;;;;;;;131.67;62.57;;;;;;;7.12;100.00;100808.14;5126301;56;1142831;-70
2023/01/07 16:17:14;;;;;;;107.00;52.97;;;;;;;7.16;100.00;100804.39;5146878;56;1145263;-71
2023/01/07 16:22:22;;;;;;;85.40;44.27;;;;;;;7.22;100.00;100806.64;5118744;56;1145094;-70
2023/01/07 16:27:30;;;;;;;87.90;48.63;;;;;;;7.26;100.00;100809.95;5126586;56;1143158;-71
2023/01/07 16:32:36;;;;;;;53.00;32.90;;;;;;;7.24;100.00;100807.41;5110616;56;1143022;-68
2023/01/07 16:37:42;;;;;;;53.67;31.03;;;;;;;7.26;100.00;100799.42;5052183;56;1142864;-72
2023/01/07 16:42:49;;;;;;;47.53;29.70;;;;;;;7.28;100.00;100802.35;5092549;56;1142949;-72
2023/01/07 16:48:20;;;;;;;65.10;39.00;;;;;;;7.29;100.00;100793.52;5104711;56;1143158;-73
2023/01/07 16:53:37;;;;;;;76.00;39.87;;;;;;;7.26;100.00;100792.85;5125125;56;1151488;-70
2023/01/07 16:58:54;;;;;;;62.60;36.48;;;;;;;7.21;100.00;100791.80;5119677;56;1143191;-72
2023/01/07 17:04:02;;;;;;;52.87;32.60;;;;;;;7.17;100.00;100791.62;5147258;56;1143000;-70
2023/01/07 17:09:19;;;;;;;54.23;32.70;;;;;;;7.17;100.00;100788.15;5126655;56;1143005;-71
2023/01/07 17:14:46;;;;;;;58.83;33.93;;;;;;;7.17;100.00;100787.68;5116282;56;1142938;-73
2023/01/07 17:20:16;;;;;;;55.03;32.60;;;;;;;7.19;100.00;100789.72;5127688;56;1142833;-72
2023/01/07 17:25:27;;;;;;;55.98;32.30;;;;;;;7.21;100.00;100783.91;5018761;56;1142924;-75
2023/01/07 17:30:36;;;;;;;57.17;33.57;;;;;;;7.24;100.00;100780.25;5038490;57;1143077;-72
2023/01/07 17:35:46;;;;;;;51.43;31.80;;;;;;;7.23;100.00;100779.87;5018734;57;1143044;-68
2023/01/07 17:40:54;;;;;;;53.73;31.37;;;;;;;7.21;100.00;100777.33;5018747;57;1143087;-73
2023/01/07 17:46:01;;;;;;;58.13;33.87;;;;;;;7.19;100.00;100770.00;5038307;57;1143112;-73
2023/01/07 17:51:08;;;;;;;56.53;30.53;;;;;;;7.20;100.00;100763.80;5018124;57;1143203;-73
2023/01/07 17:56:15;;;;;;;123.53;55.77;;;;;;;7.24;100.00;100761.38;5018245;57;1143100;-66
2023/01/07 18:01:24;;;;;;;80.13;39.30;;;;;;;7.24;100.00;100777.16;5075277;56;1145267;-67
2023/01/07 18:06:33;;;;;;;90.07;45.87;;;;;;;7.21;100.00;100765.49;5143950;56;1143099;-71
2023/01/07 18:17:06;;;;;;;101.33;49.43;;;;;;;7.16;100.00;100760.15;5127082;56;1142999;-69
2023/01/07 18:22:11;;;;;;;54.30;29.23;;;;;;;7.15;100.00;100754.52;5125339;56;1145147;-69
2023/01/07 18:27:19;;;;;;;63.38;31.15;;;;;;;7.14;100.00;100748.41;5062486;57;1142899;-73
2023/01/07 18:32:25;;;;;;;98.63;45.20;;;;;;;7.15;100.00;100746.16;5074683;56;1150445;-70
2023/01/07 18:37:31;;;;;;;60.77;29.27;;;;;;;7.18;100.00;100742.00;5042264;57;1142875;-74
2023/01/07 18:42:37;;;;;;;306.27;137.03;;;;;;;7.23;100.00;100740.41;5062650;57;1143090;-67
2023/01/07 18:47:44;;;;;;;354.37;168.77;;;;;;;7.27;100.00;100744.56;5042266;56;1147153;-70
2023/01/07 18:52:50;;;;;;;77.37;36.10;;;;;;;7.24;100.00;100740.33;5042091;56;1147260;-67
2023/01/07 18:57:56;;;;;;;90.53;43.93;;;;;;;7.21;100.00;100735.24;5062420;57;1142863;-74
2023/01/07 19:03:02;;;;;;;93.10;45.33;;;;;;;7.20;100.00;100737.49;5042744;57;1142900;-72
2023/01/07 19:08:08;;;;;;;52.50;28.23;;;;;;;7.22;100.00;100738.72;5091844;56;1143117;-68
2023/01/07 19:13:13;;;;;;;53.03;26.63;;;;;;;7.24;100.00;100742.95;5127370;56;1143004;-75
2023/01/07 19:18:19;;;;;;;49.03;28.87;;;;;;;7.28;100.00;100739.68;5147364;56;1142943;-73
2023/01/07 19:23:25;;;;;;;125.58;53.87;;;;;;;7.30;100.00;100745.70;5113392;56;1142997;-72
2023/01/07 19:28:31;;;;;;;84.30;39.05;;;;;;;7.31;100.00;100739.50;5110030;56;1145062;-76
2023/01/07 19:33:38;;;;;;;55.60;28.02;;;;;;;7.30;100.00;100736.02;5119826;56;1142954;-74
2023/01/07 19:38:47;;;;;;;57.77;30.73;;;;;;;7.31;100.00;100740.34;5127160;56;1142837;-73
2023/01/07 19:43:59;;;;;;;56.50;29.97;;;;;;;7.34;100.00;100726.13;5042636;57;1142845;-66
2023/01/07 19:49:07;;;;;;;65.13;38.93;;;;;;;7.36;100.00;100715.89;5068498;56;1143039;-69
2023/01/07 19:54:15;;;;;;;110.40;59.30;;;;;;;7.39;100.00;100727.55;5053789;56;1142914;-73
2023/01/07 19:59:21;;;;;;;55.83;29.23;;;;;;;7.37;100.00;100716.74;5042372;57;1145247;-69
2023/01/07 20:04:27;;;;;;;65.20;36.07;;;;;;;7.34;100.00;100715.14;5062799;57;1142885;-69
2023/01/07 20:09:33;;;;;;;52.85;32.55;;;;;;;7.33;100.00;100709.50;5042670;57;1142989;-67
2023/01/07 20:14:41;;;;;;;76.28;38.17;;;;;;;7.32;100.00;100708.31;5044194;56;1142954;-72
2023/01/07 20:19:46;;;;;;;109.43;54.33;;;;;;;7.32;100.00;100699.10;5147342;56;1142878;-68
2023/01/07 20:24:53;;;;;;;59.13;32.90;;;;;;;7.26;100.00;100698.14;5119943;56;1145039;-69
2023/01/07 20:29:59;;;;;;;55.63;31.20;;;;;;;7.19;100.00;100704.23;5049796;56;1142914;-71
2023/01/07 20:35:07;;;;;;;59.70;32.93;;;;;;;7.17;100.00;100682.94;5075922;56;1142895;-71
2023/01/07 20:40:13;;;;;;;74.97;38.00;;;;;;;7.15;100.00;100690.07;5048306;56;1143043;-72
2023/01/07 20:45:19;;;;;;;61.90;33.63;;;;;;;7.13;100.00;100681.42;5041505;56;1143184;-70
2023/01/07 20:50:25;;;;;;;48.53;29.90;;;;;;;7.10;100.00;100689.02;5056901;57;1143125;-73
2023/01/07 20:55:31;;;;;;;43.52;24.32;;;;;;;7.03;100.00;100680.64;5036871;56;1142892;-73
2023/01/07 21:00:38;;;;;;;49.47;29.60;;;;;;;6.99;100.00;100677.00;5037223;57;1142903;-72
2023/01/07 21:05:45;;;;;;;53.25;27.15;;;;;;;7.00;100.00;100682.64;5057095;57;1143045;-73
2023/01/07 21:10:50;;;;;;;55.73;30.33;;;;;;;6.99;100.00;100674.37;5037122;56;1142882;-70
2023/01/07 21:16:02;;;;;;;62.67;33.97;;;;;;;6.95;100.00;100676.33;5075999;56;1142867;-69
2023/01/07 21:21:15;;;;;;;43.75;25.30;;;;;;;6.90;100.00;100672.27;5071871;56;1142927;-75
2023/01/07 21:26:22;;;;;;;44.40;25.07;;;;;;;6.86;100.00;100658.49;5036759;57;1143217;-72
2023/01/07 21:31:28;;;;;;;47.80;25.70;;;;;;;6.81;100.00;100659.69;5049169;56;1142918;-76
2023/01/07 21:36:35;;;;;;;50.50;28.70;;;;;;;6.78;100.00;100648.04;5131935;56;1142959;-72
2023/01/07 21:41:41;;;;;;;47.83;26.30;;;;;;;6.74;100.00;100647.84;5101519;56;1142993;-71
2023/01/07 21:46:46;;;;;;;43.00;25.23;;;;;;;6.65;100.00;100634.79;5101883;56;1143057;-69
2023/01/07 21:51:52;;;;;;;39.67;25.03;;;;;;;6.59;100.00;100635.98;5069438;56;1143123;-69
2023/01/07 21:56:58;;;;;;;43.97;26.60;;;;;;;6.58;100.00;100630.35;5070452;56;1142949;-71
2023/01/07 22:02:04;;;;;;;65.57;36.00;;;;;;;6.55;100.00;100616.11;5042812;57;1143127;-75
2023/01/07 22:07:14;;;;;;;53.57;27.87;;;;;;;6.45;100.00;100604.43;5056201;56;1143096;-73
2023/01/07 22:12:22;;;;;;;44.80;25.40;;;;;;;6.33;100.00;100595.50;5067044;56;1142892;-68
2023/01/07 22:17:28;;;;;;;46.42;25.75;;;;;;;6.25;100.00;100590.33;5076582;56;1143001;-70
2023/01/07 22:22:34;;;;;;;55.38;29.10;;;;;;;6.16;100.00;100586.45;4897317;58;1142987;-69
2023/01/07 22:27:39;;;;;;;43.05;24.25;;;;;;;6.11;100.00;100587.16;5062832;57;1144559;-67
2023/01/07 22:32:45;;;;;;;45.28;26.07;;;;;;;6.04;100.00;100582.38;5078136;56;1143011;-69
2023/01/07 22:37:52;;;;;;;40.00;23.97;;;;;;;6.01;100.00;100568.95;5127079;56;1143149;-69
2023/01/07 22:43:00;;;;;;;41.47;22.93;;;;;;;5.96;100.00;100569.20;5147671;56;1142780;-68
2023/01/07 22:48:09;;;;;;;48.07;26.37;;;;;;;5.94;100.00;100564.55;5121572;56;1142964;-71
2023/01/07 22:53:15;;;;;;;44.97;23.93;;;;;;;5.90;100.00;100559.55;5121951;56;1142898;-73
2023/01/07 22:58:20;;;;;;;45.78;25.17;;;;;;;5.84;100.00;100548.05;5121763;56;1143096;-70
2023/01/07 23:03:27;;;;;;;49.60;24.27;;;;;;;5.80;100.00;100538.22;5137842;56;1143024;-68
2023/01/07 23:08:33;;;;;;;45.00;24.43;;;;;;;5.79;100.00;100535.67;4963136;58;1144682;-72
2023/01/07 23:13:40;;;;;;;52.80;28.97;;;;;;;5.77;100.00;100533.60;4962916;58;1143062;-69
2023/01/07 23:18:46;;;;;;;51.00;27.50;;;;;;;5.73;100.00;100525.52;4982552;58;1142892;-72
2023/01/07 23:23:52;;;;;;;50.10;24.27;;;;;;;5.66;100.00;100524.55;4963014;57;1140797;-70